Time;durP1;ratioP1;P1;durP2;ratioP2;P2;SDS_P1;SDS_P2;PMS_P1;PMS_P2;Temp;Humidity;BMP_temperature;BMP_pressure;BME280_temperature;BME280_humidity;BME280_pressure;Samples;Min_cycle;Max_cycle;Signal;HPM_P1;HPM_P2
2021/11/23 00:00:45;;;;;;;27.92;13.23;;;;;;;1.83;81.30;102769.06;5094993;28;20036;-69
2021/11/23 00:03:14;;;;;;;28.02;13.93;;;;;;;1.87;81.45;102770.69;5096232;28;20036;-69
2021/11/23 00:05:43;;;;;;;32.35;14.75;;;;;;;1.83;81.77;102775.16;5094365;28;20048;-69
2021/11/23 00:08:11;;;;;;;40.83;14.90;;;;;;;1.87;81.49;102766.34;5096149;28;20165;-69
2021/11/23 00:10:40;;;;;;;31.52;15.30;;;;;;;1.83;82.31;102766.47;5097363;28;20101;-69
2021/11/23 00:13:08;;;;;;;33.22;14.48;;;;;;;1.76;82.68;102760.53;5116230;28;20047;-69
2021/11/23 00:15:35;;;;;;;34.58;15.27;;;;;;;1.81;82.14;102758.66;5115049;28;20040;-69
2021/11/23 00:18:04;;;;;;;30.73;15.27;;;;;;;1.84;82.12;102760.34;5115005;28;20526;-69
2021/11/23 00:20:32;;;;;;;30.05;15.25;;;;;;;1.88;82.84;102769.78;5085548;28;20036;-69
2021/11/23 00:23:00;;;;;;;29.30;14.13;;;;;;;1.88;82.18;102770.63;5115842;28;20051;-69
2021/11/23 00:25:28;;;;;;;29.65;14.52;;;;;;;1.84;82.63;102762.94;5098367;28;20067;-69
2021/11/23 00:27:56;;;;;;;26.10;14.38;;;;;;;1.86;82.09;102761.13;5114923;28;20035;-69
2021/11/23 00:30:24;;;;;;;28.27;14.40;;;;;;;1.83;82.88;102759.44;5116268;28;20036;-69
2021/11/23 00:32:53;;;;;;;28.75;14.50;;;;;;;1.87;83.00;102770.69;5114320;28;20044;-69
2021/11/23 00:35:22;;;;;;;26.58;13.93;;;;;;;1.86;82.01;102769.00;5115088;28;20063;-69
2021/11/23 00:37:50;;;;;;;30.33;14.63;;;;;;;1.83;82.45;102763.84;5116004;28;20040;-69
2021/11/23 00:40:19;;;;;;;30.50;14.43;;;;;;;1.82;83.17;102754.25;5115996;28;20044;-69
2021/11/23 00:42:46;;;;;;;30.95;14.18;;;;;;;1.84;82.47;102750.72;5114432;28;20044;-69
2021/11/23 00:45:13;;;;;;;30.05;15.50;;;;;;;1.86;82.83;102753.28;5115914;28;20069;-69
2021/11/23 00:47:40;;;;;;;29.98;15.15;;;;;;;1.82;82.50;102752.53;5115635;28;20127;-69
2021/11/23 00:50:08;;;;;;;30.65;14.68;;;;;;;1.86;82.58;102745.44;5121555;27;20047;-69
2021/11/23 00:52:37;;;;;;;29.77;15.50;;;;;;;1.79;82.43;102747.38;5134596;27;20047;-69
2021/11/23 00:55:06;;;;;;;29.38;15.52;;;;;;;1.78;81.50;102745.66;5096559;27;20044;-69
2021/11/23 00:57:33;;;;;;;31.42;14.65;;;;;;;1.74;81.67;102751.88;5096856;28;20378;-69
2021/11/23 01:00:00;;;;;;;25.08;14.07;;;;;;;1.70;81.99;102753.75;5094773;28;20089;-69
2021/11/23 01:02:27;;;;;;;28.30;14.10;;;;;;;1.67;81.64;102761.72;5095010;28;20063;-69
2021/11/23 01:04:53;;;;;;;32.92;14.88;;;;;;;1.66;81.55;102753.91;5092250;28;20438;-69
2021/11/23 01:07:21;;;;;;;28.63;14.52;;;;;;;1.67;82.42;102742.53;5095060;28;20040;-69
2021/11/23 01:09:48;;;;;;;30.73;15.55;;;;;;;1.71;81.79;102745.00;5080648;28;20101;-69
2021/11/23 01:12:15;;;;;;;34.22;15.13;;;;;;;1.66;82.05;102736.44;5093737;28;20111;-69
2021/11/23 01:14:42;;;;;;;32.20;15.50;;;;;;;1.64;81.78;102734.78;5093128;28;20097;-69
2021/11/23 01:17:11;;;;;;;31.73;14.85;;;;;;;1.59;82.19;102740.16;5091798;28;20514;-69
2021/11/23 01:19:37;;;;;;;26.88;13.55;;;;;;;1.66;82.20;102741.66;5114829;28;20389;-69
2021/11/23 01:22:04;;;;;;;30.75;14.77;;;;;;;1.63;82.11;102740.91;5115066;28;20118;-69
2021/11/23 01:24:31;;;;;;;29.08;15.45;;;;;;;1.67;81.67;102751.25;5115089;28;20050;-69
2021/11/23 01:26:58;;;;;;;27.30;14.52;;;;;;;1.66;81.94;102741.66;5114957;28;20075;-69
2021/11/23 01:29:25;;;;;;;29.60;15.23;;;;;;;1.63;82.06;102744.38;5114745;28;20539;-69
2021/11/23 01:31:52;;;;;;;27.63;14.70;;;;;;;1.72;81.70;102738.00;5113658;28;20040;-69
2021/11/23 01:34:19;;;;;;;30.30;14.18;;;;;;;1.80;81.48;102733.41;5111886;28;20069;-69
2021/11/23 01:36:47;;;;;;;31.05;15.52;;;;;;;1.86;81.17;102734.97;5113831;28;20075;-69
2021/11/23 01:39:14;;;;;;;27.80;14.80;;;;;;;1.85;81.45;102725.38;5113584;28;20047;-69
2021/11/23 01:41:41;;;;;;;29.83;15.05;;;;;;;1.84;81.25;102739.41;5112908;28;20043;-69
2021/11/23 01:44:09;;;;;;;31.30;15.02;;;;;;;1.88;80.56;102734.00;5113450;28;20043;-69
2021/11/23 01:46:36;;;;;;;25.42;14.43;;;;;;;1.82;80.19;102728.97;5096692;28;20048;-69
2021/11/23 01:49:03;;;;;;;29.17;14.48;;;;;;;1.82;80.53;102730.72;5113660;28;20043;-69
2021/11/23 01:51:30;;;;;;;31.08;14.68;;;;;;;1.87;79.95;102731.41;5104377;28;20146;-69
2021/11/23 01:53:57;;;;;;;29.90;14.63;;;;;;;1.75;80.84;102743.16;5113332;28;20036;-69
2021/11/23 01:56:25;;;;;;;26.42;14.48;;;;;;;1.73;80.26;102732.72;5095902;28;20114;-69
2021/11/23 01:58:52;;;;;;;27.63;14.15;;;;;;;1.68;80.32;102739.00;5113138;28;20447;-69
2021/11/23 02:01:19;;;;;;;31.05;15.60;;;;;;;1.68;80.63;102734.63;5113961;28;20035;-69
2021/11/23 02:03:46;;;;;;;32.58;14.73;;;;;;;1.67;80.70;102739.91;5110397;28;20047;-69
2021/11/23 02:06:13;;;;;;;31.85;14.05;;;;;;;1.62;80.45;102737.44;5114169;27;20476;-69
2021/11/23 02:08:41;;;;;;;27.70;14.45;;;;;;;1.67;80.38;102740.78;5113950;28;20089;-69
2021/11/23 02:11:07;;;;;;;31.90;15.00;;;;;;;1.63;80.80;102744.38;5114243;28;20120;-69
2021/11/23 02:13:34;;;;;;;37.97;15.75;;;;;;;1.60;80.89;102739.25;5113972;28;20047;-69
2021/11/23 02:16:01;;;;;;;30.95;15.10;;;;;;;1.57;81.40;102744.56;5113890;28;20066;-69
2021/11/23 02:18:29;;;;;;;27.75;15.13;;;;;;;1.55;81.11;102741.16;5112479;28;20393;-69
2021/11/23 02:20:57;;;;;;;30.38;15.82;;;;;;;1.52;81.17;102744.69;5108600;27;20499;-69
2021/11/23 02:23:24;;;;;;;33.67;15.15;;;;;;;1.58;80.80;102740.19;5112188;28;20040;-69
2021/11/23 02:25:51;;;;;;;32.65;16.02;;;;;;;1.56;80.67;102747.22;5113948;28;20050;-69
2021/11/23 02:28:18;;;;;;;30.55;15.02;;;;;;;1.49;81.14;102744.81;5114011;28;20046;-69
2021/11/23 02:30:49;;;;;;;28.35;14.23;;;;;;;1.49;81.13;102744.81;5113886;28;20514;-69
2021/11/23 02:33:19;;;;;;;36.75;14.90;;;;;;;1.52;81.03;102747.31;5113882;28;20122;-69
2021/11/23 02:35:47;;;;;;;34.17;14.88;;;;;;;1.46;81.37;102734.44;5112301;28;20039;-69
2021/11/23 02:38:14;;;;;;;30.65;14.80;;;;;;;1.45;81.54;102739.69;5111891;28;20053;-69
2021/11/23 02:40:40;;;;;;;27.10;14.43;;;;;;;1.44;81.58;102743.25;5112156;28;20446;-69
2021/11/23 02:43:08;;;;;;;31.13;15.05;;;;;;;1.36;80.96;102742.59;5113470;28;20036;-69
2021/11/23 02:45:35;;;;;;;28.13;15.20;;;;;;;1.36;81.10;102745.22;5112407;28;20092;-69
2021/11/23 02:48:05;;;;;;;29.77;14.95;;;;;;;1.46;80.89;102742.28;5113474;28;20036;-69
2021/11/23 02:50:32;;;;;;;34.70;15.25;;;;;;;1.42;80.67;102735.44;5110351;27;20077;-69
2021/11/23 02:52:59;;;;;;;30.38;14.85;;;;;;;1.43;81.37;102736.28;5092911;28;20434;-69
2021/11/23 02:55:31;;;;;;;31.58;15.38;;;;;;;1.45;81.17;102739.69;5091248;28;20051;-69
2021/11/23 02:57:58;;;;;;;32.88;14.13;;;;;;;1.45;80.24;102726.63;5092903;28;20036;-69
2021/11/23 03:00:28;;;;;;;31.02;14.93;;;;;;;1.41;80.91;102730.25;5091877;28;20097;-69
2021/11/23 03:02:55;;;;;;;31.23;15.40;;;;;;;1.44;80.85;102731.00;5091114;28;20511;-69
2021/11/23 03:05:25;;;;;;;34.75;15.98;;;;;;;1.49;80.15;102726.50;5085694;28;20094;-69
2021/11/23 03:07:53;;;;;;;30.48;15.00;;;;;;;1.47;80.21;102725.66;5107057;28;20040;-69
2021/11/23 03:10:26;;;;;;;33.20;15.32;;;;;;;1.39;80.16;102730.28;5112725;28;20039;-69
2021/11/23 03:12:55;;;;;;;30.48;14.75;;;;;;;1.33;80.62;102728.72;5112984;28;20036;-69
2021/11/23 03:15:23;;;;;;;29.65;15.05;;;;;;;1.36;80.52;102739.97;5077896;28;20564;-69
2021/11/23 03:17:50;;;;;;;29.30;15.23;;;;;;;1.32;80.21;102741.81;5092575;28;20512;-69
2021/11/23 03:20:20;;;;;;;30.70;15.40;;;;;;;1.30;80.45;102739.25;5091661;28;20094;-69
2021/11/23 03:22:48;;;;;;;29.48;15.05;;;;;;;1.29;80.98;102734.06;5074814;28;20559;-69
2021/11/23 03:25:15;;;;;;;27.92;15.00;;;;;;;1.32;80.91;102726.13;5091511;28;20051;-69
2021/11/23 03:27:43;;;;;;;35.95;15.75;;;;;;;1.32;81.57;102731.38;5092792;28;20515;-69
2021/11/23 03:30:13;;;;;;;30.73;16.45;;;;;;;1.29;82.14;102724.47;5096028;28;20101;-69
2021/11/23 03:32:40;;;;;;;32.20;15.93;;;;;;;1.25;81.67;102728.06;5112078;28;20090;-69
2021/11/23 03:35:08;;;;;;;32.33;16.00;;;;;;;1.32;82.48;102726.13;5109795;28;20040;-69
2021/11/23 03:37:35;;;;;;;33.22;16.45;;;;;;;1.33;82.04;102733.09;5091483;28;20047;-69
2021/11/23 03:40:04;;;;;;;38.53;16.20;;;;;;;1.36;82.32;102739.97;5091493;28;20051;-69
2021/11/23 03:42:31;;;;;;;31.33;15.93;;;;;;;1.40;82.11;102736.38;5090855;28;20036;-68
2021/11/23 03:44:58;;;;;;;31.98;16.02;;;;;;;1.48;82.16;102734.38;5092586;28;20515;-68
2021/11/23 03:47:27;;;;;;;32.90;16.45;;;;;;;1.56;82.01;102735.00;5109630;28;20078;-69
2021/11/23 03:49:55;;;;;;;29.70;14.70;;;;;;;1.61;82.66;102735.72;5109030;28;20089;-69
2021/11/23 03:52:22;;;;;;;30.95;15.10;;;;;;;1.59;82.91;102731.44;5092560;28;20040;-69
2021/11/23 03:54:49;;;;;;;26.27;15.45;;;;;;;1.65;82.70;102732.09;5092240;28;20044;-68
2021/11/23 03:57:16;;;;;;;30.35;15.75;;;;;;;1.72;82.91;102728.38;5092253;28;20044;-69
2021/11/23 03:59:47;;;;;;;31.42;15.25;;;;;;;1.76;82.58;102721.28;5092561;28;20044;-69
2021/11/23 04:02:16;;;;;;;34.13;15.35;;;;;;;1.83;82.45;102725.44;5090731;28;20047;-68
2021/11/23 04:04:43;;;;;;;31.52;16.67;;;;;;;1.89;82.59;102727.88;5089562;28;20146;-69
2021/11/23 04:07:10;;;;;;;39.03;16.92;;;;;;;1.91;82.19;102728.69;5092460;28;20489;-69
2021/11/23 04:09:37;;;;;;;34.28;16.67;;;;;;;1.97;81.88;102721.53;5091960;28;20063;-69
2021/11/23 04:12:06;;;;;;;33.33;15.85;;;;;;;2.02;82.22;102724.84;5091125;28;20028;-68
2021/11/23 04:14:33;;;;;;;31.08;14.93;;;;;;;2.01;81.80;102720.53;5091020;28;20489;-69
2021/11/23 04:17:01;;;;;;;28.25;15.32;;;;;;;2.09;81.67;102724.59;5092173;28;20040;-69
2021/11/23 04:19:28;;;;;;;32.72;16.38;;;;;;;2.11;81.99;102730.66;5092226;28;20093;-69
2021/11/23 04:21:57;;;;;;;32.60;16.75;;;;;;;2.13;82.05;102727.09;5091934;28;20518;-69
2021/11/23 04:24:24;;;;;;;33.22;16.30;;;;;;;2.13;82.45;102724.47;5090749;28;20075;-69
2021/11/23 04:26:51;;;;;;;31.23;16.50;;;;;;;2.17;82.01;102728.72;5106598;28;20071;-69
2021/11/23 04:29:18;;;;;;;32.90;17.70;;;;;;;2.13;81.94;102732.34;5116393;28;20036;-69
2021/11/23 04:31:45;;;;;;;32.47;16.20;;;;;;;2.19;82.01;102732.16;5113097;28;20222;-69
2021/11/23 04:34:12;;;;;;;30.85;16.33;;;;;;;2.19;81.60;102725.16;5114987;28;20044;-69
2021/11/23 04:36:39;;;;;;;30.10;16.15;;;;;;;2.23;81.71;102723.28;5097764;28;20043;-69
2021/11/23 04:39:07;;;;;;;33.05;16.25;;;;;;;2.24;81.66;102722.38;5116031;27;20039;-69
2021/11/23 04:41:35;;;;;;;31.17;16.70;;;;;;;2.24;81.75;102718.00;5115881;28;20035;-69
2021/11/23 04:44:02;;;;;;;31.40;16.30;;;;;;;2.27;81.62;102719.66;5115641;28;20044;-68
2021/11/23 04:46:29;;;;;;;28.60;14.68;;;;;;;2.28;81.54;102726.59;5114846;28;20047;-69
2021/11/23 04:48:55;;;;;;;28.20;15.05;;;;;;;2.31;81.60;102718.66;5114732;28;20096;-69
2021/11/23 04:51:22;;;;;;;29.55;15.13;;;;;;;2.35;81.71;102719.38;5105751;28;20111;-69
2021/11/23 04:53:49;;;;;;;28.85;14.90;;;;;;;2.31;81.13;102718.66;5094090;28;20040;-69
2021/11/23 04:56:16;;;;;;;31.77;15.75;;;;;;;2.37;81.48;102721.06;5096134;28;20036;-68
2021/11/23 04:58:43;;;;;;;34.83;16.05;;;;;;;2.39;81.07;102727.09;5114217;28;20046;-69
2021/11/23 05:01:10;;;;;;;34.28;15.95;;;;;;;2.40;81.71;102718.34;5114355;28;20039;-68
2021/11/23 05:03:37;;;;;;;31.70;14.70;;;;;;;2.46;81.22;102717.28;5093987;28;20044;-69
2021/11/23 05:06:04;;;;;;;28.13;15.57;;;;;;;2.46;81.91;102718.13;5113959;28;20044;-69
2021/11/23 05:08:31;;;;;;;31.00;16.00;;;;;;;2.43;81.57;102715.59;5115379;28;20093;-69
2021/11/23 05:10:58;;;;;;;30.20;15.68;;;;;;;2.46;81.85;102720.72;5098230;28;20043;-68
2021/11/23 05:13:25;;;;;;;31.98;16.10;;;;;;;2.51;81.83;102717.97;5113640;28;20131;-69
2021/11/23 05:15:52;;;;;;;32.97;15.80;;;;;;;2.60;81.37;102717.66;5114017;28;20188;-69
2021/11/23 05:18:19;;;;;;;31.88;16.00;;;;;;;2.59;81.15;102712.47;5114725;28;20051;-69
2021/11/23 05:20:46;;;;;;;31.75;16.27;;;;;;;2.56;81.45;102716.03;5114035;28;20385;-69
2021/11/23 05:23:12;;;;;;;31.08;15.82;;;;;;;2.61;81.06;102716.72;5080011;28;20385;-69
2021/11/23 05:25:39;;;;;;;26.80;15.15;;;;;;;2.61;81.05;102711.47;5097045;28;20062;-68
2021/11/23 05:28:06;;;;;;;29.30;15.57;;;;;;;2.60;81.36;102714.16;5114703;28;20040;-69
2021/11/23 05:30:32;;;;;;;32.63;15.77;;;;;;;2.64;81.55;102718.41;5113518;28;20134;-69
2021/11/23 05:32:59;;;;;;;34.97;15.95;;;;;;;2.67;81.56;102720.88;5114648;28;20093;-69
2021/11/23 05:35:26;;;;;;;27.48;15.40;;;;;;;2.69;81.65;102722.56;5114833;28;20051;-68
2021/11/23 05:37:53;;;;;;;30.83;15.48;;;;;;;2.72;81.23;102713.72;5113692;28;20035;-70
2021/11/23 05:40:21;;;;;;;37.72;16.45;;;;;;;2.72;81.43;102718.97;5080207;28;20044;-67
2021/11/23 05:42:48;;;;;;;29.88;15.95;;;;;;;2.76;81.65;102719.72;5113148;28;20050;-68
2021/11/23 05:45:15;;;;;;;32.40;16.00;;;;;;;2.83;80.77;102713.34;5113499;28;20172;-67
2021/11/23 05:47:42;;;;;;;26.77;14.93;;;;;;;2.70;81.41;102712.91;5096197;28;20047;-67
2021/11/23 05:50:09;;;;;;;34.92;16.75;;;;;;;2.75;80.55;102718.88;5113276;28;20048;-67
2021/11/23 05:52:36;;;;;;;32.00;16.42;;;;;;;2.60;80.53;102720.28;5113455;28;20054;-68
2021/11/23 05:55:03;;;;;;;28.80;15.80;;;;;;;2.57;81.50;102714.28;5113307;28;20043;-68
2021/11/23 05:57:30;;;;;;;27.60;15.18;;;;;;;2.56;81.44;102718.63;5113921;28;20415;-67
2021/11/23 05:59:57;;;;;;;28.95;15.80;;;;;;;2.57;81.06;102712.50;5114222;28;20039;-67
2021/11/23 06:02:24;;;;;;;35.78;17.42;;;;;;;2.56;81.30;102717.78;5109901;28;20436;-67
2021/11/23 06:05:06;;;;;;;33.42;17.95;;;;;;;2.58;81.16;102723.84;5092169;28;20051;-67
2021/11/23 06:07:33;;;;;;;33.47;16.00;;;;;;;2.49;80.69;102712.78;5092620;28;20051;-68
2021/11/23 06:09:59;;;;;;;28.33;16.35;;;;;;;2.53;80.91;102720.50;5107431;28;20474;-67
2021/11/23 06:12:29;;;;;;;31.58;16.42;;;;;;;2.48;81.41;102718.91;5108933;28;20040;-68
2021/11/23 06:14:59;;;;;;;33.70;17.13;;;;;;;2.44;81.61;102716.47;5092620;28;20396;-67
2021/11/23 06:17:28;;;;;;;33.92;17.23;;;;;;;2.52;81.37;102716.19;5092267;28;20052;-67
2021/11/23 06:19:54;;;;;;;31.60;15.98;;;;;;;2.45;80.87;102716.38;5091863;28;20059;-67
2021/11/23 06:22:22;;;;;;;33.08;16.48;;;;;;;2.54;80.81;102717.84;5092512;28;20039;-68
2021/11/23 06:24:49;;;;;;;30.70;15.82;;;;;;;2.45;81.52;102716.38;5093605;28;20044;-67
2021/11/23 06:27:15;;;;;;;31.50;16.67;;;;;;;2.52;81.24;102714.41;5093199;28;20250;-69
2021/11/23 06:29:42;;;;;;;33.40;16.52;;;;;;;2.51;81.42;102720.59;5075396;28;20040;-69
2021/11/23 06:32:09;;;;;;;32.33;16.58;;;;;;;2.48;81.50;102721.53;5075431;28;20032;-69
2021/11/23 06:34:36;;;;;;;33.60;17.25;;;;;;;2.41;81.68;102720.03;5090284;28;20055;-68
2021/11/23 06:37:03;;;;;;;37.30;16.33;;;;;;;2.48;81.71;102728.53;5093353;28;20089;-68
2021/11/23 06:39:29;;;;;;;30.38;16.65;;;;;;;2.42;82.23;102723.50;5091747;28;20047;-69
2021/11/23 06:41:56;;;;;;;33.17;16.45;;;;;;;2.49;81.53;102725.88;5091635;28;20035;-68
2021/11/23 06:44:23;;;;;;;32.50;16.65;;;;;;;2.46;81.66;102733.84;5091659;28;20055;-68
2021/11/23 06:46:49;;;;;;;34.25;16.75;;;;;;;2.48;82.00;102739.88;5079202;28;20043;-68
2021/11/23 06:49:16;;;;;;;35.58;16.50;;;;;;;2.46;82.02;102735.59;5092413;28;20131;-68
2021/11/23 06:51:43;;;;;;;32.70;17.02;;;;;;;2.44;81.28;102740.03;5107657;28;20549;-69
2021/11/23 06:54:10;;;;;;;40.10;17.77;;;;;;;2.42;81.42;102745.34;5092030;28;20048;-68
2021/11/23 06:56:38;;;;;;;35.05;16.38;;;;;;;2.47;81.59;102745.16;5092501;28;20059;-68
2021/11/23 06:59:04;;;;;;;41.13;18.77;;;;;;;2.54;81.13;102740.56;5092684;28;20497;-68
2021/11/23 07:01:31;;;;;;;38.63;17.48;;;;;;;2.58;80.56;102753.50;5100745;28;20062;-69
2021/11/23 07:03:58;;;;;;;38.25;17.92;;;;;;;2.55;81.21;102760.63;5076055;28;20498;-68
2021/11/23 07:06:24;;;;;;;36.13;16.90;;;;;;;2.69;80.89;102759.25;5094441;28;20054;-68
2021/11/23 07:08:51;;;;;;;33.53;16.45;;;;;;;2.61;80.84;102753.41;5112186;28;20047;-68
2021/11/23 07:11:18;;;;;;;32.22;17.92;;;;;;;2.64;81.02;102755.09;5112306;28;20070;-68
2021/11/23 07:13:46;;;;;;;35.65;20.00;;;;;;;2.67;80.97;102757.56;5094733;28;20062;-68
2021/11/23 07:16:14;;;;;;;39.78;18.05;;;;;;;2.71;81.09;102758.31;5095468;28;20151;-68
2021/11/23 07:18:40;;;;;;;39.28;17.30;;;;;;;2.75;81.33;102763.41;5111472;28;20120;-68
2021/11/23 07:21:07;;;;;;;45.50;18.50;;;;;;;2.72;80.69;102760.91;5107077;28;20048;-69
2021/11/23 07:23:46;;;;;;;36.00;16.90;;;;;;;2.82;80.49;102764.91;5092369;28;20040;-68
2021/11/23 07:26:13;;;;;;;36.13;18.02;;;;;;;2.79;80.49;102758.94;5074867;28;20054;-69
2021/11/23 07:28:40;;;;;;;36.97;17.63;;;;;;;2.78;80.39;102762.44;5092663;28;20123;-68
2021/11/23 07:31:07;;;;;;;31.20;17.70;;;;;;;2.93;80.34;102771.53;5089703;28;20040;-68
2021/11/23 07:33:33;;;;;;;35.80;17.17;;;;;;;2.88;80.02;102776.94;5091381;28;20067;-68
2021/11/23 07:36:00;;;;;;;36.13;16.92;;;;;;;2.84;80.82;102778.81;5092357;28;20081;-69
2021/11/23 07:38:27;;;;;;;31.83;17.35;;;;;;;2.78;81.21;102767.69;5112009;28;20426;-68
2021/11/23 07:40:54;;;;;;;33.95;17.50;;;;;;;2.85;81.05;102764.78;5111594;28;20043;-68
2021/11/23 07:43:20;;;;;;;38.42;17.80;;;;;;;2.92;81.45;102764.59;5111284;28;20110;-68
2021/11/23 07:45:47;;;;;;;38.20;18.35;;;;;;;2.91;81.39;102773.34;5112455;28;20040;-68
2021/11/23 07:48:14;;;;;;;35.33;17.60;;;;;;;2.95;81.36;102769.69;5112534;28;20510;-68
2021/11/23 07:50:41;;;;;;;37.35;16.70;;;;;;;2.94;81.20;102771.47;5111227;28;20051;-68
2021/11/23 07:53:08;;;;;;;35.13;18.58;;;;;;;3.03;81.72;102771.13;5112559;28;20066;-68
2021/11/23 07:55:36;;;;;;;37.17;18.10;;;;;;;3.03;81.27;102778.16;5111479;28;20450;-68
2021/11/23 07:58:03;;;;;;;33.60;17.80;;;;;;;3.06;81.39;102780.69;5112660;28;20123;-68
2021/11/23 08:00:30;;;;;;;42.05;18.70;;;;;;;3.11;81.34;102775.25;5112747;28;20052;-68
2021/11/23 08:02:57;;;;;;;35.75;17.45;;;;;;;3.12;81.55;102780.44;5116099;28;20040;-68
2021/11/23 08:05:24;;;;;;;40.80;18.00;;;;;;;3.13;81.26;102776.94;5114807;28;20126;-68
2021/11/23 08:07:51;;;;;;;41.42;18.20;;;;;;;3.13;81.81;102778.66;5115510;28;20229;-68
2021/11/23 08:10:17;;;;;;;33.95;17.52;;;;;;;3.16;80.58;102778.56;5116435;28;20035;-68
2021/11/23 08:12:45;;;;;;;33.33;17.80;;;;;;;3.20;80.80;102786.28;5116437;28;20496;-69
2021/11/23 08:15:12;;;;;;;38.03;18.17;;;;;;;3.17;80.05;102783.78;5098221;28;20044;-68
2021/11/23 08:17:40;;;;;;;35.10;17.83;;;;;;;3.19;80.00;102789.81;5114487;28;20046;-67
2021/11/23 08:20:09;;;;;;;40.17;19.20;;;;;;;3.29;79.83;102787.69;5116618;28;20043;-67
2021/11/23 08:22:37;;;;;;;35.03;18.88;;;;;;;3.33;80.27;102793.69;5100463;27;20047;-68
2021/11/23 08:25:05;;;;;;;42.10;19.42;;;;;;;3.30;79.89;102791.19;5105177;28;20059;-69
2021/11/23 08:27:32;;;;;;;33.88;18.90;;;;;;;3.33;80.03;102789.31;5103164;28;20047;-67
2021/11/23 08:29:59;;;;;;;43.63;18.73;;;;;;;3.30;80.24;102788.56;5128225;27;20043;-69
2021/11/23 08:32:26;;;;;;;38.55;18.80;;;;;;;3.42;80.27;102785.47;5109491;27;20042;-68
2021/11/23 08:34:53;;;;;;;34.88;18.92;;;;;;;3.53;80.01;102799.06;5110445;28;20046;-67
2021/11/23 08:37:20;;;;;;;40.42;19.80;;;;;;;3.61;80.28;102793.50;5099763;27;20040;-68
2021/11/23 08:39:47;;;;;;;38.95;18.52;;;;;;;3.57;80.14;102790.16;5107176;27;20511;-69
2021/11/23 08:42:18;;;;;;;34.72;19.15;;;;;;;3.64;80.44;102798.66;5116326;27;20031;-68
2021/11/23 08:44:44;;;;;;;39.23;19.33;;;;;;;3.70;80.75;102800.19;5104587;27;20036;-68
2021/11/23 08:47:11;;;;;;;38.60;19.88;;;;;;;3.81;80.79;102798.00;5085186;28;20045;-69
2021/11/23 08:49:38;;;;;;;34.22;20.02;;;;;;;3.77;81.23;102804.28;5109499;28;20035;-68
2021/11/23 08:52:05;;;;;;;44.58;19.20;;;;;;;3.73;80.29;102802.66;5096545;28;20511;-69
2021/11/23 08:54:32;;;;;;;40.03;19.33;;;;;;;3.84;80.41;102805.75;5110831;27;20027;-69
2021/11/23 08:57:04;;;;;;;38.30;18.88;;;;;;;3.86;80.53;102806.56;5108302;27;20046;-69
2021/11/23 08:59:34;;;;;;;43.50;19.75;;;;;;;3.74;80.01;102807.88;5108059;27;20040;-69
2021/11/23 09:02:01;;;;;;;40.55;20.70;;;;;;;3.81;80.69;102811.97;5110756;27;20043;-69
2021/11/23 09:04:29;;;;;;;39.40;21.13;;;;;;;3.80;81.15;102804.16;5112172;27;20036;-69
2021/11/23 09:07:00;;;;;;;38.83;20.50;;;;;;;3.98;80.55;102815.72;5102506;28;20052;-69
2021/11/23 09:09:28;;;;;;;39.50;19.83;;;;;;;3.94;80.43;102801.00;5107351;27;20465;-68
2021/11/23 09:11:56;;;;;;;35.17;20.10;;;;;;;3.94;81.73;102806.25;5105302;27;20043;-68
2021/11/23 09:14:24;;;;;;;38.17;20.58;;;;;;;3.94;81.99;102801.00;5106821;27;20031;-68
2021/11/23 09:16:51;;;;;;;37.60;19.92;;;;;;;3.96;81.30;102802.63;5114616;27;20043;-68
2021/11/23 09:19:20;;;;;;;40.10;20.17;;;;;;;4.03;81.85;102809.34;5100700;27;20094;-69
2021/11/23 09:21:46;;;;;;;39.38;20.75;;;;;;;4.04;81.73;102812.84;5094392;28;20500;-69
2021/11/23 09:24:13;;;;;;;48.00;21.70;;;;;;;4.09;81.26;102810.88;5090876;28;20057;-69
2021/11/23 09:26:40;;;;;;;35.72;19.45;;;;;;;4.07;81.18;102811.88;5110514;28;20040;-69
2021/11/23 09:29:07;;;;;;;51.55;21.33;;;;;;;4.02;81.22;102812.03;5107568;28;20060;-69
2021/11/23 09:31:34;;;;;;;51.72;27.15;;;;;;;4.06;81.63;102807.53;5095109;28;20062;-68
2021/11/23 09:34:00;;;;;;;40.63;21.23;;;;;;;3.97;81.60;102799.09;5104263;27;20452;-68
2021/11/23 09:36:27;;;;;;;46.30;21.27;;;;;;;4.08;81.73;102806.56;5105099;28;20039;-68
2021/11/23 09:38:54;;;;;;;45.10;22.58;;;;;;;4.09;81.93;102800.38;5111080;27;20036;-68
2021/11/23 09:41:21;;;;;;;43.50;21.80;;;;;;;4.15;82.25;102801.94;5103807;28;20085;-68
2021/11/23 09:43:48;;;;;;;44.22;22.75;;;;;;;4.20;81.87;102808.69;5102674;28;20056;-68
2021/11/23 09:46:14;;;;;;;45.30;22.45;;;;;;;4.17;82.55;102808.81;5104536;28;20054;-68
2021/11/23 09:48:44;;;;;;;50.58;23.23;;;;;;;4.25;81.91;102803.25;5110332;27;20061;-68
2021/11/23 09:51:16;;;;;;;45.03;21.92;;;;;;;4.34;82.45;102807.28;5091692;28;20143;-70
2021/11/23 09:53:44;;;;;;;48.00;22.77;;;;;;;4.31;81.55;102808.25;5102891;28;20039;-70
2021/11/23 09:56:12;;;;;;;43.58;22.23;;;;;;;4.41;80.70;102809.56;5106111;28;20089;-69
2021/11/23 09:58:39;;;;;;;44.40;22.85;;;;;;;4.30;81.77;102808.31;5111796;28;20042;-69
2021/11/23 10:01:08;;;;;;;42.92;22.73;;;;;;;4.34;81.41;102810.75;5098731;27;20047;-69
2021/11/23 10:03:36;;;;;;;48.40;22.45;;;;;;;4.29;81.81;102810.06;5103934;28;20054;-69
2021/11/23 10:06:10;;;;;;;48.22;22.60;;;;;;;4.31;81.79;102807.38;5099594;27;20048;-70
2021/11/23 10:08:40;;;;;;;41.80;22.67;;;;;;;4.27;81.77;102805.81;5099531;27;20043;-69
2021/11/23 10:11:09;;;;;;;42.47;22.60;;;;;;;4.36;82.18;102806.28;5100706;28;20493;-69
2021/11/23 10:13:48;;;;;;;53.17;23.85;;;;;;;4.35;82.65;102803.75;5102724;28;20058;-69
2021/11/23 10:16:17;;;;;;;46.13;23.85;;;;;;;4.39;82.62;102806.16;5100617;27;20119;-69
2021/11/23 10:18:52;;;;;;;59.47;24.08;;;;;;;4.41;82.95;102804.31;5109991;27;20058;-69
2021/11/23 10:21:25;;;;;;;51.85;24.67;;;;;;;4.35;81.87;102799.31;5104726;27;20475;-69
2021/11/23 10:23:52;;;;;;;49.08;24.75;;;;;;;4.39;83.25;102789.53;5090975;27;20032;-69
2021/11/23 10:26:25;;;;;;;56.08;25.40;;;;;;;4.47;83.50;102802.38;5091016;28;20051;-69
2021/11/23 10:28:56;;;;;;;50.15;25.98;;;;;;;4.43;84.22;102805.09;5099850;28;20062;-69
2021/11/23 10:31:29;;;;;;;55.58;25.88;;;;;;;4.37;83.28;102792.22;5099012;27;20408;-69
2021/11/23 10:34:02;;;;;;;47.40;25.67;;;;;;;4.35;83.13;102807.22;5092474;28;20127;-69
2021/11/23 10:36:31;;;;;;;51.58;25.30;;;;;;;4.42;83.85;102799.91;5103451;28;20039;-69
2021/11/23 10:39:08;;;;;;;46.30;23.92;;;;;;;4.43;83.06;102796.38;5107917;28;20093;-69
2021/11/23 10:41:40;;;;;;;49.50;24.40;;;;;;;4.47;82.66;102792.69;5109593;27;20508;-69
2021/11/23 10:44:27;;;;;;;47.65;25.80;;;;;;;4.47;83.62;102797.09;5107221;27;20454;-69
2021/11/23 10:47:00;;;;;;;49.95;24.98;;;;;;;4.58;82.40;102795.75;5121067;27;20103;-69
2021/11/23 10:49:36;;;;;;;47.35;26.38;;;;;;;4.50;83.40;102799.63;5104103;28;20050;-69
2021/11/23 10:52:04;;;;;;;48.88;25.83;;;;;;;4.55;83.44;102800.28;5112690;27;20078;-69
2021/11/23 10:54:33;;;;;;;54.38;26.58;;;;;;;4.47;84.05;102799.72;5110236;28;20074;-69
2021/11/23 10:57:05;;;;;;;53.45;27.17;;;;;;;4.52;83.66;102797.78;5101910;28;20567;-69
2021/11/23 10:59:34;;;;;;;45.45;26.10;;;;;;;4.49;83.91;102796.09;5105521;28;20066;-69
2021/11/23 11:02:02;;;;;;;63.33;27.58;;;;;;;4.53;84.72;102797.72;5106562;27;20040;-69
2021/11/23 11:04:33;;;;;;;51.20;28.15;;;;;;;4.52;84.10;102790.72;5102669;28;20456;-69
2021/11/23 11:07:02;;;;;;;59.72;29.15;;;;;;;4.61;84.35;102781.59;5102251;28;20123;-69
2021/11/23 11:09:30;;;;;;;54.15;28.63;;;;;;;4.72;83.85;102783.78;5093799;28;20031;-68
2021/11/23 11:11:57;;;;;;;57.97;28.25;;;;;;;4.73;83.40;102785.47;5098756;27;20036;-68
2021/11/23 11:14:24;;;;;;;50.97;27.23;;;;;;;4.68;83.29;102779.59;5099674;27;20404;-68
2021/11/23 11:16:51;;;;;;;52.53;26.67;;;;;;;4.69;83.72;102776.88;5097648;28;20043;-68
2021/11/23 11:19:19;;;;;;;56.20;27.85;;;;;;;4.60;84.70;102775.50;5107470;28;20119;-68